createdAt,value
2022-12-27T00:01:10.107Z,0.57
2022-12-27T00:03:38.200Z,0.30
2022-12-27T00:06:09.964Z,0.80
2022-12-27T00:08:38.057Z,0.30
2022-12-27T00:11:07.852Z,0.55
2022-12-27T00:13:35.758Z,0.80
2022-12-27T00:16:05.263Z,0.75
2022-12-27T00:18:34.103Z,0.70
2022-12-27T00:21:03.872Z,0.50
2022-12-27T00:23:36.335Z,0.75
2022-12-27T00:26:06.569Z,0.63
2022-12-27T00:28:35.633Z,1.17
2022-12-27T00:31:05.582Z,0.40
2022-12-27T00:33:35.590Z,0.55
2022-12-27T00:36:07.203Z,0.73
2022-12-27T00:38:37.190Z,0.80
2022-12-27T00:41:05.902Z,0.75
2022-12-27T00:43:34.455Z,0.47
2022-12-27T00:46:02.980Z,1.65
2022-12-27T00:48:30.955Z,0.80
2022-12-27T00:51:00.095Z,1.48
2022-12-27T00:53:28.516Z,2.63
2022-12-27T00:55:58.222Z,1.45
2022-12-27T00:58:26.921Z,1.80
2022-12-27T01:00:54.951Z,1.30
2022-12-27T01:03:22.975Z,2.35
2022-12-27T01:05:51.185Z,1.52
2022-12-27T01:08:19.079Z,3.75
2022-12-27T01:10:47.089Z,1.58
2022-12-27T01:13:16.469Z,0.65
2022-12-27T01:15:44.338Z,1.00
2022-12-27T01:18:12.280Z,0.65
2022-12-27T01:20:40.261Z,0.52
2022-12-27T01:23:08.257Z,0.45
2022-12-27T01:25:36.226Z,2.25
2022-12-27T01:28:04.369Z,1.02
2022-12-27T01:30:33.784Z,4.47
2022-12-27T01:33:01.769Z,0.47
2022-12-27T01:35:30.264Z,0.55
2022-12-27T01:37:58.310Z,0.88
2022-12-27T01:40:26.721Z,0.47
2022-12-27T01:42:53.673Z,2.83
2022-12-27T01:45:23.623Z,2.25
2022-12-27T01:47:58.341Z,1.58
2022-12-27T01:50:32.024Z,1.50
2022-12-27T01:53:06.765Z,0.43
2022-12-27T01:55:42.266Z,2.80
2022-12-27T01:58:14.839Z,0.30
2022-12-27T02:00:45.674Z,0.80
2022-12-27T02:03:20.721Z,0.30
2022-12-27T02:05:49.484Z,0.82
2022-12-27T02:08:29.887Z,0.43
2022-12-27T02:10:58.658Z,0.30
2022-12-27T02:13:27.857Z,0.70
2022-12-27T02:15:56.080Z,1.50
2022-12-27T02:18:25.470Z,0.68
2022-12-27T02:21:29.878Z,0.30
2022-12-27T02:24:07.613Z,0.57
2022-12-27T02:26:46.922Z,1.65
2022-12-27T02:29:28.068Z,0.55
2022-12-27T02:32:03.254Z,0.20
2022-12-27T02:34:39.811Z,1.55
2022-12-27T02:37:11.769Z,0.22
2022-12-27T02:39:43.387Z,0.20
2022-12-27T02:42:31.307Z,0.20
2022-12-27T02:45:14.672Z,0.20
2022-12-27T02:48:01.613Z,0.30
2022-12-27T02:51:06.803Z,0.20
2022-12-27T02:53:46.402Z,0.43
2022-12-27T02:56:45.793Z,0.38
2022-12-27T02:59:29.412Z,0.40
2022-12-27T03:02:31.553Z,1.35
2022-12-27T03:05:16.514Z,0.45
2022-12-27T03:07:50.066Z,0.30
2022-12-27T03:10:50.371Z,0.90
2022-12-27T03:13:42.628Z,0.45
2022-12-27T03:16:19.051Z,0.15
2022-12-27T03:19:04.451Z,1.17
2022-12-27T03:21:53.398Z,0.40
2022-12-27T03:24:45.413Z,0.50
2022-12-27T03:27:18.346Z,1.75
2022-12-27T03:30:11.083Z,0.65
2022-12-27T03:33:03.572Z,0.25
2022-12-27T03:35:38.646Z,0.20
2022-12-27T03:38:09.435Z,0.65
2022-12-27T03:41:07.869Z,0.20
2022-12-27T03:43:37.992Z,0.22
2022-12-27T03:46:30.807Z,1.15
2022-12-27T03:49:10.192Z,1.20
2022-12-27T03:51:43.227Z,0.95
2022-12-27T03:54:17.285Z,0.60
2022-12-27T03:56:45.452Z,1.23
2022-12-27T03:59:13.801Z,0.77
2022-12-27T04:01:43.109Z,2.20
2022-12-27T04:04:11.138Z,1.40
2022-12-27T04:06:40.767Z,2.40
2022-12-27T04:09:27.994Z,0.45
2022-12-27T04:12:13.677Z,1.13
2022-12-27T04:14:59.612Z,0.60
2022-12-27T04:17:45.198Z,1.90
2022-12-27T04:20:31.084Z,1.85
2022-12-27T04:23:18.191Z,2.90
2022-12-27T04:26:03.796Z,0.20
2022-12-27T04:28:49.022Z,1.52
2022-12-27T04:31:34.755Z,1.90
2022-12-27T04:34:20.551Z,0.98
2022-12-27T04:36:48.762Z,1.50
2022-12-27T04:39:18.161Z,1.52
2022-12-27T04:42:03.601Z,1.10
2022-12-27T04:44:49.214Z,1.52
2022-12-27T04:47:36.447Z,2.47
2022-12-27T04:50:23.955Z,2.10
2022-12-27T04:53:09.118Z,1.58
2022-12-27T04:55:38.812Z,2.50
2022-12-27T04:58:06.773Z,1.67
2022-12-27T05:00:52.633Z,1.42
2022-12-27T05:03:24.283Z,1.88
2022-12-27T05:05:53.259Z,2.13
2022-12-27T05:08:39.427Z,2.20
2022-12-27T05:11:27.179Z,2.05
2022-12-27T05:14:01.304Z,1.58
2022-12-27T05:16:30.999Z,2.53
2022-12-27T05:18:59.255Z,2.25
2022-12-27T05:21:27.967Z,2.63
2022-12-27T05:24:13.828Z,3.83
2022-12-27T05:26:43.287Z,2.67
2022-12-27T05:29:11.254Z,3.60
2022-12-27T05:31:39.396Z,2.22
2022-12-27T05:34:07.906Z,4.45
2022-12-27T05:36:35.929Z,2.28
2022-12-27T05:39:04.015Z,1.20
2022-12-27T05:41:32.078Z,1.83
2022-12-27T05:44:06.867Z,3.00
2022-12-27T05:46:35.753Z,1.77
2022-12-27T05:49:03.771Z,3.08
2022-12-27T05:51:31.815Z,3.90
2022-12-27T05:53:59.961Z,2.60
2022-12-27T05:56:27.970Z,3.97
2022-12-27T05:58:56.067Z,4.05
2022-12-27T06:01:25.494Z,3.72
2022-12-27T06:03:53.434Z,2.88
2022-12-27T06:06:21.492Z,2.70
2022-12-27T06:08:49.467Z,2.17
2022-12-27T06:11:19.175Z,2.53
2022-12-27T06:13:51.447Z,2.10
2022-12-27T06:16:21.031Z,2.17
2022-12-27T06:18:50.432Z,2.63
2022-12-27T06:21:20.735Z,3.60
2022-12-27T06:23:49.699Z,4.55
2022-12-27T06:26:20.127Z,4.30
2022-12-27T06:28:49.590Z,1.77
2022-12-27T06:31:18.032Z,4.07
2022-12-27T06:33:46.721Z,2.72
2022-12-27T06:36:18.769Z,1.63
2022-12-27T06:38:47.188Z,2.30
2022-12-27T06:41:18.364Z,3.08
2022-12-27T06:43:47.588Z,4.03
2022-12-27T06:46:19.844Z,3.65
2022-12-27T06:48:48.408Z,3.95
2022-12-27T06:51:20.104Z,3.50
2022-12-27T06:53:48.288Z,3.38
2022-12-27T06:56:19.071Z,2.72
2022-12-27T06:58:47.311Z,2.30
2022-12-27T07:01:17.091Z,3.03
2022-12-27T07:03:49.159Z,2.42
2022-12-27T07:06:19.878Z,3.45
2022-12-27T07:08:48.195Z,2.95
2022-12-27T07:11:17.123Z,2.70
2022-12-27T07:13:47.205Z,3.72
2022-12-27T07:16:17.402Z,2.80
2022-12-27T07:18:49.684Z,3.72
2022-12-27T07:21:21.708Z,1.55
2022-12-27T07:23:49.944Z,2.10
2022-12-27T07:26:19.896Z,2.00
2022-12-27T07:28:48.669Z,2.00
2022-12-27T07:31:18.541Z,3.65
2022-12-27T07:33:47.183Z,4.57
2022-12-27T07:36:18.532Z,2.58
2022-12-27T07:38:48.307Z,2.42
2022-12-27T07:41:16.944Z,4.60
2022-12-27T07:43:45.688Z,4.47
2022-12-27T07:46:16.715Z,4.60
2022-12-27T07:48:45.716Z,2.60
2022-12-27T07:51:14.124Z,3.13
2022-12-27T07:53:42.208Z,3.50
2022-12-27T07:56:12.926Z,1.70
2022-12-27T07:58:42.727Z,2.20
2022-12-27T08:01:12.324Z,4.00
2022-12-27T08:03:41.865Z,2.58
2022-12-27T08:06:19.867Z,2.47
2022-12-27T08:08:48.038Z,2.72
2022-12-27T08:11:17.351Z,4.07
2022-12-27T08:13:46.082Z,2.17
2022-12-27T08:16:18.712Z,2.78
2022-12-27T08:18:47.319Z,2.88
2022-12-27T08:21:16.568Z,3.28
2022-12-27T08:23:44.559Z,3.17
2022-12-27T08:26:12.780Z,5.00
2022-12-27T08:28:42.269Z,4.45
2022-12-27T08:31:12.002Z,4.80
2022-12-27T08:33:41.776Z,3.30
2022-12-27T08:36:29.064Z,3.70
2022-12-27T08:38:59.736Z,2.85
2022-12-27T08:41:27.637Z,3.83
2022-12-27T08:43:56.917Z,3.78
2022-12-27T08:46:24.944Z,3.30
2022-12-27T08:48:53.016Z,4.18
2022-12-27T08:51:32.748Z,4.00
2022-12-27T08:54:06.888Z,4.57
2022-12-27T08:56:34.875Z,3.50
2022-12-27T08:59:04.531Z,4.15
2022-12-27T09:01:32.808Z,3.90
2022-12-27T09:04:00.940Z,2.20
2022-12-27T09:06:28.924Z,3.67
2022-12-27T09:08:57.365Z,3.92
2022-12-27T09:11:27.411Z,3.83
2022-12-27T09:13:56.289Z,2.50
2022-12-27T09:16:27.913Z,2.75
2022-12-27T09:18:57.813Z,4.63
2022-12-27T09:21:27.943Z,5.28
2022-12-27T09:23:56.836Z,2.40
2022-12-27T09:26:29.191Z,4.60
2022-12-27T09:28:58.371Z,2.10
2022-12-27T09:31:28.559Z,4.22
2022-12-27T09:33:57.698Z,3.90
2022-12-27T09:36:27.703Z,4.55
2022-12-27T09:38:57.217Z,6.22
2022-12-27T09:44:34.388Z,4.85
2022-12-27T09:47:11.489Z,4.05
2022-12-27T09:49:42.511Z,6.60
2022-12-27T09:52:17.786Z,3.13
2022-12-27T09:55:00.900Z,4.70
2022-12-27T09:57:36.567Z,4.32
2022-12-27T10:00:07.852Z,5.30
2022-12-27T10:02:37.460Z,7.68
2022-12-27T10:05:22.577Z,4.57
2022-12-27T10:08:02.179Z,4.90
2022-12-27T10:10:41.735Z,6.47
2022-12-27T10:13:21.517Z,8.68
2022-12-27T10:15:55.797Z,6.03
2022-12-27T10:18:35.717Z,5.45
2022-12-27T10:21:13.658Z,5.32
2022-12-27T10:23:45.761Z,2.92
2022-12-27T10:26:21.819Z,4.65
2022-12-27T10:28:57.202Z,3.10
2022-12-27T10:31:26.841Z,7.43
2022-12-27T10:33:56.457Z,5.55
2022-12-27T10:36:28.333Z,5.05
2022-12-27T10:38:56.821Z,4.30
2022-12-27T10:41:37.374Z,4.18
2022-12-27T10:44:11.836Z,4.63
2022-12-27T10:46:41.426Z,5.18
2022-12-27T10:49:22.193Z,3.97
2022-12-27T10:51:51.103Z,5.30
2022-12-27T10:54:23.895Z,4.85
2022-12-27T10:56:51.997Z,5.35
2022-12-27T10:59:21.624Z,7.05
2022-12-27T11:01:53.801Z,6.25
2022-12-27T11:04:24.785Z,5.82
2022-12-27T11:07:13.601Z,8.55
2022-12-27T11:09:50.416Z,6.13
2022-12-27T11:12:22.135Z,7.07
2022-12-27T11:14:56.987Z,4.65
2022-12-27T11:17:29.245Z,5.65
2022-12-27T11:20:03.698Z,5.38
2022-12-27T11:22:31.829Z,2.40
2022-12-27T11:25:01.844Z,2.72
2022-12-27T11:27:31.190Z,4.13
2022-12-27T11:30:00.732Z,6.47
2022-12-27T11:32:28.984Z,4.03
2022-12-27T11:34:58.754Z,5.57
2022-12-27T11:37:28.320Z,5.75
2022-12-27T11:40:12.143Z,4.57
2022-12-27T11:42:44.063Z,5.43
2022-12-27T11:45:16.451Z,7.22
2022-12-27T11:47:50.723Z,4.45
2022-12-27T11:50:40.889Z,3.55
2022-12-27T11:53:25.126Z,5.03
2022-12-27T11:56:07.612Z,2.63
2022-12-27T11:58:48.127Z,4.38
2022-12-27T12:01:42.057Z,3.60
2022-12-27T12:04:44.282Z,3.92
2022-12-27T12:07:27.623Z,6.43
2022-12-27T12:10:08.928Z,4.50
2022-12-27T12:12:58.867Z,5.82
2022-12-27T12:16:21.401Z,2.75
2022-12-27T12:19:04.278Z,1.40
2022-12-27T12:21:38.295Z,2.95
2022-12-27T12:24:43.084Z,3.90
2022-12-27T12:27:40.672Z,3.53
2022-12-27T12:30:51.379Z,3.90
2022-12-27T12:33:36.586Z,2.45
2022-12-27T12:36:26.253Z,2.17
2022-12-27T12:39:00.382Z,2.22
2022-12-27T12:41:57.261Z,3.63
2022-12-27T12:44:50.415Z,2.80
2022-12-27T12:47:33.545Z,2.85
2022-12-27T12:50:22.340Z,3.00
2022-12-27T12:53:33.838Z,2.97
2022-12-27T12:56:14.718Z,1.00
2022-12-27T12:58:53.867Z,2.35
2022-12-27T13:01:35.449Z,3.08
2022-12-27T13:04:14.811Z,1.40
2022-12-27T13:07:15.175Z,2.47
2022-12-27T13:09:56.669Z,1.40
2022-12-27T13:12:32.784Z,3.20
2022-12-27T13:15:20.508Z,2.55
2022-12-27T13:18:01.708Z,1.38
2022-12-27T13:20:54.734Z,1.70
2022-12-27T13:23:35.931Z,2.45
2022-12-27T13:26:14.712Z,2.88
2022-12-27T13:28:59.914Z,6.10
2022-12-27T13:31:39.339Z,3.05
2022-12-27T13:34:22.307Z,3.63
2022-12-27T13:37:10.845Z,2.85
2022-12-27T13:39:49.194Z,11.35
2022-12-27T13:42:45.386Z,120.63
2022-12-27T13:45:32.052Z,212.65
2022-12-27T13:48:21.087Z,287.63
2022-12-27T13:51:12.634Z,367.58
2022-12-27T13:54:17.575Z,365.73
2022-12-27T13:56:54.844Z,439.17
2022-12-27T14:00:02.635Z,370.67
2022-12-27T14:03:01.818Z,310.05
2022-12-27T14:06:03.216Z,241.65
2022-12-27T14:08:54.054Z,201.80
2022-12-27T14:11:36.212Z,178.07
2022-12-27T14:14:06.575Z,149.38
2022-12-27T14:16:57.568Z,133.75
2022-12-27T14:20:08.400Z,116.97
2022-12-27T14:22:57.554Z,97.50
2022-12-27T14:26:04.016Z,75.90
2022-12-27T14:29:08.066Z,70.10
2022-12-27T14:31:58.506Z,62.97
2022-12-27T14:34:59.740Z,51.65
2022-12-27T14:37:59.302Z,60.00
2022-12-27T14:40:51.396Z,58.08
2022-12-27T14:44:00.864Z,54.10
2022-12-27T14:46:58.444Z,51.22
2022-12-27T14:49:54.888Z,52.42
2022-12-27T14:52:54.795Z,44.88
2022-12-27T14:55:41.377Z,45.15
2022-12-27T14:58:28.436Z,43.88
2022-12-27T15:01:07.366Z,41.15
2022-12-27T15:03:54.585Z,38.80
2022-12-27T15:06:44.819Z,35.80
2022-12-27T15:09:24.867Z,31.73
2022-12-27T15:12:05.778Z,28.38
2022-12-27T15:14:50.239Z,29.00
2022-12-27T15:17:31.194Z,25.05
2022-12-27T15:20:27.048Z,27.48
2022-12-27T15:23:08.292Z,23.52
2022-12-27T15:25:52.567Z,20.90
2022-12-27T15:28:32.518Z,20.17
2022-12-27T15:31:07.607Z,16.95
2022-12-27T15:33:42.085Z,15.13
2022-12-27T15:36:15.023Z,16.02
2022-12-27T15:38:53.386Z,18.23
2022-12-27T15:41:32.575Z,12.45
2022-12-27T15:44:19.008Z,15.80
2022-12-27T15:47:20.247Z,16.08
2022-12-27T15:50:02.319Z,16.45
2022-12-27T15:52:39.241Z,16.92
2022-12-27T15:55:22.770Z,15.15
2022-12-27T15:58:05.798Z,12.10
2022-12-27T16:00:35.898Z,13.52
2022-12-27T16:03:25.254Z,13.55
2022-12-27T16:05:54.529Z,10.77
2022-12-27T16:08:32.250Z,10.07
2022-12-27T16:11:01.390Z,10.02
2022-12-27T16:13:45.588Z,11.07
2022-12-27T16:16:55.914Z,9.82
2022-12-27T16:20:02.679Z,9.52
2022-12-27T16:22:44.673Z,9.65
2022-12-27T16:25:32.688Z,8.82
2022-12-27T16:28:06.111Z,7.68
2022-12-27T16:30:45.187Z,7.95
2022-12-27T16:33:28.516Z,8.00
2022-12-27T16:36:14.466Z,7.43
2022-12-27T16:38:49.672Z,6.60
2022-12-27T16:41:32.498Z,6.72
2022-12-27T16:44:16.492Z,6.28
2022-12-27T16:47:03.508Z,4.95
2022-12-27T16:49:55.470Z,5.93
2022-12-27T16:52:58.402Z,5.53
2022-12-27T16:55:59.427Z,4.93
2022-12-27T16:58:36.057Z,5.57
2022-12-27T17:01:05.617Z,3.95
2022-12-27T17:03:49.227Z,5.13
2022-12-27T17:06:55.845Z,5.30
2022-12-27T17:09:44.720Z,6.43
2022-12-27T17:12:35.011Z,4.82
2022-12-27T17:15:06.571Z,4.57
2022-12-27T17:17:35.953Z,3.20
2022-12-27T17:20:07.622Z,3.83
2022-12-27T17:22:41.330Z,4.95
2022-12-27T17:25:17.152Z,3.65
2022-12-27T17:28:01.035Z,4.32
2022-12-27T17:30:44.880Z,2.08
2022-12-27T17:33:23.193Z,2.45
2022-12-27T17:36:05.676Z,6.63
2022-12-27T17:38:45.377Z,2.33
2022-12-27T17:41:46.973Z,3.45
2022-12-27T17:44:38.009Z,3.90
2022-12-27T17:47:19.655Z,2.53
2022-12-27T17:49:48.217Z,1.75
2022-12-27T17:52:35.431Z,2.75
2022-12-27T17:55:35.412Z,2.10
2022-12-27T17:58:07.104Z,2.47
2022-12-27T18:00:40.198Z,4.05
2022-12-27T18:03:10.145Z,2.65
2022-12-27T18:05:43.213Z,2.78
2022-12-27T18:08:23.440Z,2.13
2022-12-27T18:10:51.798Z,2.03
2022-12-27T18:13:21.850Z,3.72
2022-12-27T18:15:52.310Z,2.03
2022-12-27T18:18:25.361Z,4.00
2022-12-27T18:20:57.288Z,3.15
2022-12-27T18:23:25.345Z,2.08
2022-12-27T18:25:57.125Z,2.72
2022-12-27T18:28:32.637Z,3.20
2022-12-27T18:31:08.043Z,2.17
2022-12-27T18:33:41.227Z,1.23
2022-12-27T18:36:12.151Z,1.20
2022-12-27T18:38:43.027Z,1.55
2022-12-27T18:41:14.422Z,1.85
2022-12-27T18:43:46.281Z,1.83
2022-12-27T18:46:18.428Z,2.50
2022-12-27T18:48:46.648Z,1.63
2022-12-27T18:51:15.135Z,1.15
2022-12-27T18:53:45.696Z,2.13
2022-12-27T18:56:29.241Z,1.15
2022-12-27T18:59:02.207Z,3.05
2022-12-27T19:01:39.551Z,0.90
2022-12-27T19:04:23.308Z,1.65
2022-12-27T19:06:56.204Z,1.90
2022-12-27T19:09:27.793Z,2.35
2022-12-27T19:11:58.249Z,1.83
2022-12-27T19:14:27.499Z,0.95
2022-12-27T19:17:00.499Z,2.15
2022-12-27T19:19:32.388Z,3.13
2022-12-27T19:22:00.410Z,1.73
2022-12-27T19:24:34.881Z,1.70
2022-12-27T19:27:16.947Z,2.70
2022-12-27T19:29:52.451Z,1.63
2022-12-27T19:32:27.372Z,0.98
2022-12-27T19:34:59.472Z,1.30
2022-12-27T19:37:29.178Z,0.95
2022-12-27T19:39:58.711Z,2.40
2022-12-27T19:42:29.092Z,1.42
2022-12-27T19:44:57.151Z,1.73
2022-12-27T19:47:27.529Z,1.52
2022-12-27T19:49:55.564Z,1.10
2022-12-27T19:52:25.860Z,3.67
2022-12-27T19:54:59.424Z,2.20
2022-12-27T19:57:27.449Z,2.72
2022-12-27T19:59:56.472Z,1.65
2022-12-27T20:02:26.039Z,0.60
2022-12-27T20:04:54.075Z,0.75
2022-12-27T20:07:24.781Z,1.77
2022-12-27T20:09:52.818Z,0.45
2022-12-27T20:12:20.839Z,0.70
2022-12-27T20:14:48.830Z,0.73
2022-12-27T20:17:16.854Z,1.02
2022-12-27T20:19:46.318Z,0.68
2022-12-27T20:22:14.333Z,2.63
2022-12-27T20:24:42.369Z,0.98
2022-12-27T20:27:10.424Z,1.35
2022-12-27T20:29:38.473Z,2.65
2022-12-27T20:32:06.950Z,0.95
2022-12-27T20:34:34.962Z,0.65
2022-12-27T20:37:05.127Z,1.23
2022-12-27T20:39:33.096Z,1.17
2022-12-27T20:42:01.327Z,2.50
2022-12-27T20:44:29.325Z,0.70
2022-12-27T20:46:57.548Z,1.17
2022-12-27T20:49:25.915Z,0.98
2022-12-27T20:51:53.926Z,0.85
2022-12-27T20:54:23.395Z,1.17
2022-12-27T20:56:51.414Z,0.50
2022-12-27T20:59:19.441Z,0.75
2022-12-27T21:01:51.597Z,0.98
2022-12-27T21:04:22.962Z,0.65
2022-12-27T21:06:50.886Z,0.38
2022-12-27T21:09:18.870Z,0.40
2022-12-27T21:11:52.191Z,0.80
2022-12-27T21:14:20.553Z,1.75
2022-12-27T21:16:48.577Z,0.68
2022-12-27T21:19:16.778Z,0.60
2022-12-27T21:21:44.876Z,1.55
2022-12-27T21:24:12.897Z,0.50
2022-12-27T21:26:42.306Z,1.33
2022-12-27T21:29:12.268Z,2.53
2022-12-27T21:31:40.243Z,2.05
2022-12-27T21:34:08.234Z,2.33
2022-12-27T21:36:36.750Z,1.15
2022-12-27T21:39:05.802Z,1.40
2022-12-27T21:41:35.908Z,2.25
2022-12-27T21:44:04.604Z,1.13
2022-12-27T21:46:35.443Z,1.20
2022-12-27T21:49:05.546Z,2.35
2022-12-27T21:51:35.184Z,1.10
2022-12-27T21:54:03.786Z,1.73
2022-12-27T21:56:32.274Z,0.50
2022-12-27T21:59:03.006Z,1.33
2022-12-27T22:01:51.546Z,2.30
2022-12-27T22:04:20.906Z,1.08
2022-12-27T22:06:49.083Z,2.45
2022-12-27T22:09:19.013Z,2.05
2022-12-27T22:11:47.130Z,2.75
2022-12-27T22:14:15.109Z,3.05
2022-12-27T22:16:44.520Z,1.83
2022-12-27T22:19:13.899Z,2.72
2022-12-27T22:21:42.527Z,0.68
2022-12-27T22:24:13.122Z,1.15
2022-12-27T22:26:42.247Z,0.82
2022-12-27T22:29:10.217Z,0.85
2022-12-27T22:31:39.363Z,1.70
2022-12-27T22:34:08.664Z,1.40
2022-12-27T22:36:36.565Z,0.50
2022-12-27T22:39:05.808Z,2.10
2022-12-27T22:41:35.922Z,0.52
2022-12-27T22:44:06.018Z,2.65
2022-12-27T22:49:24.058Z,1.52
2022-12-27T22:51:51.978Z,1.23
2022-12-27T22:54:20.033Z,1.05
2022-12-27T22:56:47.973Z,1.73
2022-12-27T22:59:17.660Z,1.33
2022-12-27T23:01:46.497Z,1.55
2022-12-27T23:04:15.634Z,0.98
2022-12-27T23:06:45.319Z,1.50
2022-12-27T23:09:13.263Z,2.00
2022-12-27T23:11:42.751Z,1.80
2022-12-27T23:14:13.437Z,0.40
2022-12-27T23:16:42.653Z,0.93
2022-12-27T23:19:11.529Z,0.75
2022-12-27T23:21:39.800Z,0.70
2022-12-27T23:24:10.876Z,2.05
2022-12-27T23:26:39.486Z,0.50
2022-12-27T23:29:08.134Z,2.45
2022-12-27T23:31:36.198Z,2.08
2022-12-27T23:34:27.690Z,2.50
2022-12-27T23:36:57.012Z,2.47
2022-12-27T23:39:26.403Z,0.73
2022-12-27T23:41:54.651Z,3.80
2022-12-27T23:44:33.485Z,1.42
2022-12-27T23:47:03.356Z,1.75
2022-12-27T23:49:31.395Z,3.20
2022-12-27T23:51:59.391Z,2.60
2022-12-27T23:54:28.751Z,1.00
2022-12-27T23:56:56.743Z,2.08
2022-12-27T23:59:24.721Z,1.33
